createdAt,value
2022-11-10T00:00:11.403Z,30.30
2022-11-10T00:00:45.376Z,29.80
2022-11-10T00:01:07.107Z,30.15
2022-11-10T00:01:19.693Z,30.63
2022-11-10T00:01:32.261Z,30.67
2022-11-10T00:01:44.803Z,30.92
2022-11-10T00:01:57.406Z,30.67
2022-11-10T00:02:09.997Z,30.75
2022-11-10T00:02:22.579Z,30.42
2022-11-10T00:02:35.783Z,30.65
2022-11-10T00:02:49.362Z,30.73
2022-11-10T00:03:02.424Z,30.65
2022-11-10T00:03:15.053Z,31.13
2022-11-10T00:03:28.367Z,31.95
2022-11-10T00:03:41.100Z,31.20
2022-11-10T00:03:55.642Z,30.83
2022-11-10T00:04:08.282Z,31.83
2022-11-10T00:04:20.937Z,31.67
2022-11-10T00:04:33.644Z,31.40
2022-11-10T00:04:46.254Z,31.58
2022-11-10T00:04:58.995Z,30.88
2022-11-10T00:05:11.958Z,29.80
2022-11-10T00:05:24.556Z,29.10
2022-11-10T00:05:39.843Z,29.50
2022-11-10T00:05:52.415Z,30.17
2022-11-10T00:06:06.728Z,30.80
2022-11-10T00:06:19.312Z,31.10
2022-11-10T00:06:32.060Z,30.42
2022-11-10T00:06:46.728Z,30.27
2022-11-10T00:07:00.480Z,30.05
2022-11-10T00:07:13.213Z,30.48
2022-11-10T00:07:26.570Z,30.73
2022-11-10T00:07:40.123Z,30.73
2022-11-10T00:07:52.774Z,30.35
2022-11-10T00:08:07.616Z,29.75
2022-11-10T00:08:21.278Z,30.42
2022-11-10T00:08:34.286Z,30.83
2022-11-10T00:08:46.914Z,30.38
2022-11-10T00:08:59.755Z,30.25
2022-11-10T00:09:12.707Z,29.67
2022-11-10T00:09:25.596Z,29.90
2022-11-10T00:09:39.167Z,30.04
2022-11-10T00:09:52.748Z,29.80
2022-11-10T00:10:06.204Z,29.80
2022-11-10T00:10:18.916Z,29.88
2022-11-10T00:10:32.039Z,29.30
2022-11-10T00:11:01.424Z,29.27
2022-11-10T00:11:15.019Z,29.83
2022-11-10T00:11:27.576Z,30.08
2022-11-10T00:11:40.299Z,30.13
2022-11-10T00:11:52.854Z,29.90
2022-11-10T00:12:06.056Z,29.88
2022-11-10T00:12:18.669Z,29.58
2022-11-10T00:12:32.442Z,30.02
2022-11-10T00:12:45.024Z,30.60
2022-11-10T00:13:01.980Z,30.38
2022-11-10T00:13:14.579Z,29.63
2022-11-10T00:13:29.911Z,29.55
2022-11-10T00:13:57.394Z,30.25
2022-11-10T00:14:29.143Z,30.05
2022-11-10T00:15:00.278Z,29.48
2022-11-10T00:15:31.356Z,29.95
2022-11-10T00:16:00.167Z,30.30
2022-11-10T00:16:31.494Z,29.45
2022-11-10T00:17:02.044Z,29.80
2022-11-10T00:17:15.307Z,29.98
2022-11-10T00:17:28.848Z,29.73
2022-11-10T00:17:41.849Z,29.67
2022-11-10T00:17:54.419Z,29.98
2022-11-10T00:18:06.966Z,29.40
2022-11-10T00:18:19.475Z,28.90
2022-11-10T00:18:32.054Z,28.88
2022-11-10T00:18:45.857Z,29.35
2022-11-10T00:18:58.390Z,29.45
2022-11-10T00:19:10.968Z,29.77
2022-11-10T00:19:23.527Z,29.20
2022-11-10T00:19:36.156Z,29.10
2022-11-10T00:19:48.714Z,28.33
2022-11-10T00:20:01.263Z,28.80
2022-11-10T00:20:14.828Z,29.02
2022-11-10T00:20:27.374Z,29.02
2022-11-10T00:20:39.935Z,29.70
2022-11-10T00:20:52.489Z,29.92
2022-11-10T00:21:06.590Z,29.33
2022-11-10T00:21:20.317Z,29.42
2022-11-10T00:21:32.841Z,29.25
2022-11-10T00:21:46.427Z,28.45
2022-11-10T00:21:59.261Z,28.85
2022-11-10T00:22:11.821Z,28.83
2022-11-10T00:22:26.107Z,29.05
2022-11-10T00:22:40.625Z,29.52
2022-11-10T00:22:54.877Z,29.90
2022-11-10T00:23:08.444Z,30.05
2022-11-10T00:23:21.266Z,29.73
2022-11-10T00:23:34.407Z,29.27
2022-11-10T00:23:47.773Z,28.58
2022-11-10T00:24:00.340Z,28.75
2022-11-10T00:24:13.136Z,29.25
2022-11-10T00:24:27.226Z,29.40
2022-11-10T00:24:39.823Z,29.25
2022-11-10T00:24:52.378Z,29.52
2022-11-10T00:25:05.834Z,29.08
2022-11-10T00:25:18.709Z,28.75
2022-11-10T00:25:33.656Z,29.02
2022-11-10T00:25:46.201Z,29.50
2022-11-10T00:25:59.103Z,29.38
2022-11-10T00:26:14.322Z,28.98
2022-11-10T00:26:27.093Z,28.83
2022-11-10T00:26:40.624Z,28.83
2022-11-10T00:26:53.272Z,28.90
2022-11-10T00:27:05.858Z,28.63
2022-11-10T00:27:18.512Z,28.13
2022-11-10T00:27:32.330Z,28.75
2022-11-10T00:27:45.170Z,29.25
2022-11-10T00:28:00.036Z,29.30
2022-11-10T00:28:12.614Z,28.92
2022-11-10T00:28:25.980Z,28.92
2022-11-10T00:28:38.570Z,29.02
2022-11-10T00:28:51.174Z,29.42
2022-11-10T00:29:03.962Z,29.70
2022-11-10T00:29:17.532Z,29.50
2022-11-10T00:29:30.144Z,29.42
2022-11-10T00:29:42.722Z,29.15
2022-11-10T00:29:55.339Z,29.13
2022-11-10T00:30:08.443Z,28.85
2022-11-10T00:30:21.023Z,28.20
2022-11-10T00:30:33.594Z,27.98
2022-11-10T00:30:48.536Z,28.17
2022-11-10T00:31:06.618Z,29.20
2022-11-10T00:31:19.221Z,30.02
2022-11-10T00:31:31.933Z,30.20
2022-11-10T00:31:44.507Z,29.73
2022-11-10T00:31:57.092Z,29.13
2022-11-10T00:32:11.510Z,28.77
2022-11-10T00:32:24.123Z,28.15
2022-11-10T00:32:36.716Z,27.42
2022-11-10T00:32:49.554Z,28.30
2022-11-10T00:33:02.134Z,29.13
2022-11-10T00:33:14.712Z,28.77
2022-11-10T00:33:27.299Z,28.40
2022-11-10T00:33:43.833Z,28.17
2022-11-10T00:33:56.702Z,28.92
2022-11-10T00:34:13.778Z,29.50
2022-11-10T00:34:26.361Z,28.92
2022-11-10T00:34:38.927Z,29.10
2022-11-10T00:34:51.677Z,29.08
2022-11-10T00:35:05.808Z,29.10
2022-11-10T00:35:18.739Z,29.67
2022-11-10T00:35:31.428Z,29.52
2022-11-10T00:35:43.988Z,28.88
2022-11-10T00:36:00.129Z,29.00
2022-11-10T00:36:13.806Z,29.02
2022-11-10T00:36:26.439Z,28.98
2022-11-10T00:36:39.133Z,29.17
2022-11-10T00:36:51.861Z,29.13
2022-11-10T00:37:04.601Z,28.92
2022-11-10T00:37:17.429Z,28.92
2022-11-10T00:37:30.012Z,28.33
2022-11-10T00:37:43.693Z,28.85
2022-11-10T00:37:56.533Z,28.75
2022-11-10T00:38:09.228Z,28.75
2022-11-10T00:38:21.782Z,29.15
2022-11-10T00:38:34.513Z,29.50
2022-11-10T00:38:50.409Z,29.33
2022-11-10T00:39:04.441Z,29.85
2022-11-10T00:39:17.029Z,29.40
2022-11-10T00:39:29.608Z,28.55
2022-11-10T00:39:42.217Z,28.40
2022-11-10T00:39:54.806Z,28.15
2022-11-10T00:40:09.267Z,28.65
2022-11-10T00:40:22.004Z,28.38
2022-11-10T00:40:34.585Z,28.15
2022-11-10T00:40:47.903Z,28.52
2022-11-10T00:41:00.996Z,28.60
2022-11-10T00:41:13.579Z,28.42
2022-11-10T00:41:26.163Z,28.75
2022-11-10T00:41:39.735Z,29.45
2022-11-10T00:41:52.316Z,28.95
2022-11-10T00:42:05.485Z,28.20
2022-11-10T00:42:18.105Z,28.25
2022-11-10T00:42:30.660Z,28.20
2022-11-10T00:42:43.271Z,27.52
2022-11-10T00:42:55.866Z,27.65
2022-11-10T00:43:09.695Z,28.55
2022-11-10T00:43:26.311Z,28.90
2022-11-10T00:43:39.562Z,28.48
2022-11-10T00:43:52.242Z,28.40
2022-11-10T00:44:04.960Z,28.65
2022-11-10T00:44:18.546Z,27.77
2022-11-10T00:44:31.125Z,27.73
2022-11-10T00:44:43.724Z,28.02
2022-11-10T00:44:56.285Z,28.30
2022-11-10T00:45:10.277Z,28.17
2022-11-10T00:45:22.962Z,27.35
2022-11-10T00:45:35.551Z,27.38
2022-11-10T00:45:50.491Z,27.60
2022-11-10T00:46:03.127Z,28.00
2022-11-10T00:46:15.949Z,28.55
2022-11-10T00:46:28.559Z,28.88
2022-11-10T00:46:41.153Z,28.70
2022-11-10T00:46:53.733Z,28.58
2022-11-10T00:47:06.679Z,28.45
2022-11-10T00:47:19.272Z,28.52
2022-11-10T00:47:32.832Z,28.08
2022-11-10T00:47:45.869Z,28.23
2022-11-10T00:47:58.430Z,27.98
2022-11-10T00:48:11.251Z,27.92
2022-11-10T00:48:24.298Z,28.17
2022-11-10T00:48:37.918Z,28.05
2022-11-10T00:48:50.571Z,28.35
2022-11-10T00:49:03.415Z,28.10
2022-11-10T00:49:16.003Z,27.50
2022-11-10T00:49:28.787Z,27.10
2022-11-10T00:49:41.354Z,27.77
2022-11-10T00:49:53.965Z,27.55
2022-11-10T00:50:08.835Z,27.95
2022-11-10T00:50:21.520Z,28.83
2022-11-10T00:50:34.132Z,28.50
2022-11-10T00:50:46.752Z,28.35
2022-11-10T00:50:59.314Z,28.38
2022-11-10T00:51:21.077Z,27.77
2022-11-10T00:51:34.740Z,27.90
2022-11-10T00:51:47.354Z,28.85
2022-11-10T00:51:59.967Z,28.92
2022-11-10T00:52:12.531Z,28.48
2022-11-10T00:52:25.118Z,28.55
2022-11-10T00:52:37.730Z,28.48
2022-11-10T00:52:50.292Z,27.88
2022-11-10T00:53:02.897Z,27.73
2022-11-10T00:53:16.869Z,27.38
2022-11-10T00:53:29.459Z,27.40
2022-11-10T00:53:42.024Z,27.90
2022-11-10T00:53:55.270Z,28.20
2022-11-10T00:54:08.095Z,28.35
2022-11-10T00:54:20.956Z,28.10
2022-11-10T00:54:34.542Z,27.92
2022-11-10T00:54:47.127Z,28.13
2022-11-10T00:54:59.693Z,28.25
2022-11-10T00:55:12.296Z,27.40
2022-11-10T00:55:24.891Z,27.08
2022-11-10T00:55:38.770Z,27.95
2022-11-10T00:55:52.462Z,27.90
2022-11-10T00:56:05.317Z,27.25
2022-11-10T00:56:18.070Z,27.17
2022-11-10T00:56:30.718Z,27.90
2022-11-10T00:56:43.287Z,27.35
2022-11-10T00:56:56.032Z,27.52
2022-11-10T00:57:08.626Z,28.33
2022-11-10T00:57:21.210Z,29.08
2022-11-10T00:57:34.824Z,28.42
2022-11-10T00:57:47.438Z,27.63
2022-11-10T00:58:00.000Z,27.25
2022-11-10T00:58:12.967Z,27.67
2022-11-10T00:58:25.608Z,28.38
2022-11-10T00:58:38.191Z,28.27
2022-11-10T00:58:51.838Z,28.75
2022-11-10T00:59:04.606Z,27.75
2022-11-10T00:59:17.185Z,27.33
2022-11-10T00:59:29.766Z,27.42
2022-11-10T00:59:42.364Z,27.27
2022-11-10T00:59:54.951Z,27.33
2022-11-10T01:00:10.463Z,27.45
2022-11-10T01:00:23.162Z,27.90
2022-11-10T01:00:35.776Z,27.95
2022-11-10T01:00:49.820Z,27.60
2022-11-10T01:01:03.232Z,27.55
2022-11-10T01:01:17.148Z,28.30
2022-11-10T01:01:29.817Z,28.52
2022-11-10T01:01:43.442Z,27.88
2022-11-10T01:01:56.225Z,27.13
2022-11-10T01:02:08.825Z,27.58
2022-11-10T01:02:21.438Z,27.55
2022-11-10T01:02:34.031Z,27.40
2022-11-10T01:02:46.830Z,27.98
2022-11-10T01:03:02.632Z,28.35
2022-11-10T01:03:16.570Z,27.20
2022-11-10T01:03:29.186Z,27.40
2022-11-10T01:03:41.975Z,28.15
2022-11-10T01:03:55.414Z,28.90
2022-11-10T01:04:08.216Z,28.70
2022-11-10T01:04:21.781Z,27.70
2022-11-10T01:04:34.618Z,28.10
2022-11-10T01:04:47.210Z,28.42
2022-11-10T01:04:59.828Z,28.63
2022-11-10T01:05:12.433Z,28.83
2022-11-10T01:05:25.070Z,28.65
2022-11-10T01:05:38.042Z,28.20
2022-11-10T01:05:51.628Z,28.42
2022-11-10T01:06:05.554Z,28.13
2022-11-10T01:06:20.579Z,28.00
2022-11-10T01:06:33.270Z,28.52
2022-11-10T01:06:48.061Z,28.40
2022-11-10T01:07:00.749Z,27.33
2022-11-10T01:07:13.513Z,27.80
2022-11-10T01:07:26.191Z,27.88
2022-11-10T01:07:39.799Z,27.70
2022-11-10T01:07:52.348Z,27.80
2022-11-10T01:08:05.321Z,28.42
2022-11-10T01:08:18.172Z,28.23
2022-11-10T01:08:30.740Z,28.15
2022-11-10T01:08:43.802Z,28.38
2022-11-10T01:08:57.409Z,28.48
2022-11-10T01:09:10.014Z,28.67
2022-11-10T01:09:22.639Z,28.40
2022-11-10T01:09:35.198Z,28.10
2022-11-10T01:09:47.823Z,28.27
2022-11-10T01:10:00.398Z,27.67
2022-11-10T01:10:14.004Z,28.00
2022-11-10T01:10:27.134Z,28.75
2022-11-10T01:10:39.745Z,29.08
2022-11-10T01:10:52.338Z,28.55
2022-11-10T01:11:07.272Z,27.90
2022-11-10T01:11:21.955Z,28.05
2022-11-10T01:11:35.521Z,28.70
2022-11-10T01:11:48.078Z,28.85
2022-11-10T01:12:00.684Z,28.77
2022-11-10T01:12:14.510Z,28.88
2022-11-10T01:12:29.290Z,29.00
2022-11-10T01:12:41.894Z,28.63
2022-11-10T01:12:55.487Z,28.58
2022-11-10T01:13:08.107Z,28.58
2022-11-10T01:13:21.300Z,28.85
2022-11-10T01:13:34.589Z,28.42
2022-11-10T01:13:47.455Z,28.27
2022-11-10T01:14:00.069Z,28.83
2022-11-10T01:14:13.726Z,28.20
2022-11-10T01:14:26.361Z,27.98
2022-11-10T01:14:39.164Z,28.63
2022-11-10T01:14:51.744Z,28.63
2022-11-10T01:15:04.935Z,28.15
2022-11-10T01:15:17.575Z,28.15
2022-11-10T01:15:31.145Z,28.58
2022-11-10T01:15:43.721Z,28.27
2022-11-10T01:16:00.058Z,28.30
2022-11-10T01:16:15.038Z,28.45
2022-11-10T01:16:31.045Z,28.30
2022-11-10T01:16:43.648Z,28.70
2022-11-10T01:16:56.256Z,28.60
2022-11-10T01:17:08.843Z,27.83
2022-11-10T01:17:22.478Z,27.83
2022-11-10T01:17:35.329Z,28.38
2022-11-10T01:17:48.090Z,28.35
2022-11-10T01:18:00.667Z,29.38
2022-11-10T01:18:13.246Z,28.80
2022-11-10T01:18:26.097Z,28.00
2022-11-10T01:18:39.893Z,28.40
2022-11-10T01:18:54.705Z,28.77
2022-11-10T01:19:07.316Z,28.48
2022-11-10T01:19:19.878Z,28.75
2022-11-10T01:19:32.498Z,29.08
2022-11-10T01:19:45.129Z,29.40
2022-11-10T01:19:57.722Z,28.70
2022-11-10T01:20:12.513Z,27.85
2022-11-10T01:20:25.724Z,28.42
2022-11-10T01:20:38.392Z,28.92
2022-11-10T01:20:51.291Z,29.02
2022-11-10T01:21:04.712Z,29.08
2022-11-10T01:21:17.546Z,28.65
2022-11-10T01:21:31.778Z,28.52
2022-11-10T01:21:44.350Z,29.25
2022-11-10T01:21:56.943Z,28.90
2022-11-10T01:22:09.521Z,28.67
2022-11-10T01:22:22.114Z,28.52
2022-11-10T01:22:35.365Z,28.48
2022-11-10T01:22:48.078Z,28.85
2022-11-10T01:23:02.033Z,28.77
2022-11-10T01:23:14.600Z,28.58
2022-11-10T01:23:28.064Z,27.90
2022-11-10T01:23:40.624Z,28.17
2022-11-10T01:23:53.858Z,28.85
2022-11-10T01:24:07.129Z,28.55
2022-11-10T01:24:21.535Z,28.35
2022-11-10T01:24:35.084Z,28.20
2022-11-10T01:24:47.661Z,28.75
2022-11-10T01:25:00.239Z,29.23
2022-11-10T01:25:12.829Z,28.92
2022-11-10T01:25:25.396Z,29.05
2022-11-10T01:25:37.970Z,29.10
2022-11-10T01:25:50.618Z,28.55
2022-11-10T01:26:07.831Z,28.60
2022-11-10T01:26:21.261Z,28.73
2022-11-10T01:26:33.823Z,29.02
2022-11-10T01:26:46.435Z,29.60
2022-11-10T01:26:59.015Z,29.08
2022-11-10T01:27:11.608Z,28.52
2022-11-10T01:27:25.222Z,29.35
2022-11-10T01:27:37.862Z,29.17
2022-11-10T01:27:50.855Z,29.05
2022-11-10T01:28:03.602Z,28.80
2022-11-10T01:28:16.183Z,28.85
2022-11-10T01:28:29.623Z,28.73
2022-11-10T01:28:43.273Z,28.27
2022-11-10T01:28:55.913Z,28.25
2022-11-10T01:29:08.476Z,28.98
2022-11-10T01:29:21.141Z,29.05
2022-11-10T01:29:33.688Z,29.05
2022-11-10T01:29:46.724Z,29.15
2022-11-10T01:29:59.385Z,29.10
2022-11-10T01:30:13.954Z,29.02
2022-11-10T01:30:26.556Z,28.95
2022-11-10T01:30:39.143Z,29.17
2022-11-10T01:30:58.289Z,29.17
2022-11-10T01:31:12.848Z,28.95
2022-11-10T01:31:25.436Z,28.55
2022-11-10T01:31:38.014Z,28.10
2022-11-10T01:31:51.588Z,28.42
2022-11-10T01:32:04.385Z,28.67
2022-11-10T01:32:16.996Z,28.60
2022-11-10T01:32:29.597Z,28.27
2022-11-10T01:32:42.184Z,28.70
2022-11-10T01:32:55.221Z,29.35
2022-11-10T01:33:08.267Z,29.08
2022-11-10T01:33:21.185Z,28.13
2022-11-10T01:33:35.680Z,28.95
2022-11-10T01:33:48.344Z,29.10
2022-11-10T01:34:00.959Z,28.42
2022-11-10T01:34:13.530Z,28.20
2022-11-10T01:34:26.149Z,28.48
2022-11-10T01:34:38.749Z,28.67
2022-11-10T01:34:52.424Z,28.58
2022-11-10T01:35:06.085Z,28.83
2022-11-10T01:35:18.652Z,29.23
2022-11-10T01:35:31.272Z,28.80
2022-11-10T01:35:43.834Z,28.30
2022-11-10T01:35:56.720Z,27.95
2022-11-10T01:36:10.700Z,28.00
2022-11-10T01:36:24.270Z,27.88
2022-11-10T01:36:36.847Z,28.05
2022-11-10T01:36:49.415Z,28.38
2022-11-10T01:37:02.006Z,28.80
2022-11-10T01:37:14.606Z,28.92
2022-11-10T01:37:27.416Z,28.63
2022-11-10T01:37:41.163Z,28.60
2022-11-10T01:37:53.802Z,28.52
2022-11-10T01:38:06.656Z,28.15
2022-11-10T01:38:19.282Z,29.58
2022-11-10T01:38:33.732Z,29.95
2022-11-10T01:38:46.610Z,28.38
2022-11-10T01:39:01.926Z,27.92
2022-11-10T01:39:14.496Z,28.23
2022-11-10T01:39:27.130Z,28.88
2022-11-10T01:39:39.716Z,28.65
2022-11-10T01:39:52.325Z,29.17
2022-11-10T01:40:05.995Z,29.38
2022-11-10T01:40:18.864Z,29.58
2022-11-10T01:40:32.549Z,29.15
2022-11-10T01:40:45.422Z,28.60
2022-11-10T01:40:58.723Z,28.27
2022-11-10T01:41:13.632Z,28.35
2022-11-10T01:41:26.251Z,27.92
2022-11-10T01:41:38.910Z,28.42
2022-11-10T01:41:52.482Z,28.73
2022-11-10T01:42:05.438Z,28.60
2022-11-10T01:42:25.085Z,28.83
2022-11-10T01:42:49.897Z,28.08
2022-11-10T01:43:02.540Z,28.27
2022-11-10T01:43:16.669Z,28.50
2022-11-10T01:43:29.739Z,28.80
2022-11-10T01:43:42.559Z,28.92
2022-11-10T01:44:14.023Z,28.98
2022-11-10T01:44:26.923Z,27.73
2022-11-10T01:44:41.908Z,28.30
2022-11-10T01:45:31.949Z,28.65
2022-11-10T01:45:51.217Z,27.70
2022-11-10T01:46:07.074Z,28.13
2022-11-10T01:46:20.659Z,27.95
2022-11-10T01:46:33.221Z,27.65
2022-11-10T01:46:45.835Z,27.58
2022-11-10T01:46:58.419Z,28.45
2022-11-10T01:47:11.011Z,28.55
2022-11-10T01:47:23.581Z,28.40
2022-11-10T01:47:36.180Z,28.17
2022-11-10T01:47:49.546Z,27.73
2022-11-10T01:48:05.975Z,27.33
2022-11-10T01:48:25.659Z,27.73
2022-11-10T01:48:42.547Z,28.40
2022-11-10T01:48:59.247Z,28.20
2022-11-10T01:49:13.613Z,27.23
2022-11-10T01:49:28.348Z,26.98
2022-11-10T01:49:40.956Z,27.67
2022-11-10T01:49:53.586Z,28.45
2022-11-10T01:50:07.582Z,27.80
2022-11-10T01:50:23.349Z,27.05
2022-11-10T01:50:39.657Z,27.42
2022-11-10T01:50:52.686Z,27.95
2022-11-10T01:51:10.079Z,27.60
2022-11-10T01:51:28.300Z,27.80
2022-11-10T01:51:45.105Z,28.35
2022-11-10T01:52:00.970Z,28.60
2022-11-10T01:52:15.540Z,28.73
2022-11-10T01:52:28.186Z,28.17
2022-11-10T01:52:42.362Z,27.67
2022-11-10T01:53:00.728Z,28.45
2022-11-10T01:53:19.121Z,28.90
2022-11-10T01:53:35.576Z,28.38
2022-11-10T01:53:54.891Z,28.52
2022-11-10T01:54:11.064Z,28.45
2022-11-10T01:54:26.772Z,28.60
2022-11-10T01:54:42.885Z,28.88
2022-11-10T01:54:55.626Z,28.60
2022-11-10T01:55:08.640Z,28.25
2022-11-10T01:55:21.754Z,28.52
2022-11-10T01:55:37.091Z,28.58
2022-11-10T01:55:50.786Z,27.92
2022-11-10T01:56:04.271Z,27.90
2022-11-10T01:56:18.797Z,27.85
2022-11-10T01:56:35.166Z,27.50
2022-11-10T01:56:54.437Z,27.92
2022-11-10T01:57:10.178Z,28.45
2022-11-10T01:57:22.859Z,28.15
2022-11-10T01:57:37.166Z,28.13
2022-11-10T01:57:49.998Z,28.55
2022-11-10T01:58:02.628Z,28.55
2022-11-10T01:58:17.693Z,28.15
2022-11-10T01:58:39.884Z,28.20
2022-11-10T01:58:58.106Z,28.48
2022-11-10T01:59:15.245Z,29.10
2022-11-10T01:59:30.634Z,28.83
2022-11-10T01:59:47.354Z,27.90
2022-11-10T02:00:01.278Z,28.02
2022-11-10T02:00:14.219Z,27.95
2022-11-10T02:00:26.884Z,27.75
2022-11-10T02:00:39.561Z,27.90
2022-11-10T02:00:52.233Z,27.67
2022-11-10T02:01:06.498Z,28.23
2022-11-10T02:01:20.357Z,29.08
2022-11-10T02:01:33.031Z,28.33
2022-11-10T02:01:48.165Z,27.42
2022-11-10T02:02:10.039Z,27.65
2022-11-10T02:02:28.681Z,28.13
2022-11-10T02:02:48.089Z,27.67
2022-11-10T02:03:05.886Z,27.95
2022-11-10T02:03:25.530Z,28.75
2022-11-10T02:03:43.388Z,28.48
2022-11-10T02:04:01.575Z,27.17
2022-11-10T02:04:17.941Z,27.08
2022-11-10T02:04:31.120Z,27.38
2022-11-10T02:04:45.091Z,27.30
2022-11-10T02:04:59.813Z,27.20
2022-11-10T02:05:12.367Z,27.40
2022-11-10T02:05:26.604Z,27.48
2022-11-10T02:05:39.281Z,27.80
2022-11-10T02:05:52.027Z,27.75
2022-11-10T02:06:05.196Z,27.60
2022-11-10T02:06:21.034Z,27.83
2022-11-10T02:06:37.787Z,27.58
2022-11-10T02:06:51.310Z,26.80
2022-11-10T02:07:04.683Z,26.88
2022-11-10T02:07:17.964Z,27.38
2022-11-10T02:07:32.045Z,27.88
2022-11-10T02:07:46.061Z,27.27
2022-11-10T02:07:59.547Z,26.50
2022-11-10T02:08:16.849Z,27.20
2022-11-10T02:08:29.720Z,27.45
2022-11-10T02:08:43.426Z,27.30
2022-11-10T02:08:58.480Z,27.20
2022-11-10T02:09:11.422Z,27.58
2022-11-10T02:09:24.305Z,27.90
2022-11-10T02:09:38.222Z,27.48
2022-11-10T02:09:52.691Z,27.48
2022-11-10T02:10:13.738Z,27.33
2022-11-10T02:10:26.334Z,27.42
2022-11-10T02:10:38.905Z,27.05
2022-11-10T02:10:51.494Z,27.55
2022-11-10T02:11:04.408Z,27.95
2022-11-10T02:11:17.204Z,27.80
2022-11-10T02:11:32.222Z,27.42
2022-11-10T02:11:45.986Z,26.95
2022-11-10T02:11:58.587Z,27.00
2022-11-10T02:12:11.956Z,26.98
2022-11-10T02:12:37.161Z,26.90
2022-11-10T02:12:50.521Z,27.60
2022-11-10T02:13:03.140Z,27.08
2022-11-10T02:13:15.743Z,27.08
2022-11-10T02:13:29.449Z,26.95
2022-11-10T02:13:42.801Z,26.90
2022-11-10T02:13:55.964Z,27.23
2022-11-10T02:14:09.376Z,27.42
2022-11-10T02:14:22.122Z,27.88
2022-11-10T02:14:35.009Z,27.65
2022-11-10T02:14:48.598Z,27.08
2022-11-10T02:15:01.158Z,26.27
2022-11-10T02:15:16.546Z,26.05
2022-11-10T02:15:29.229Z,26.60
2022-11-10T02:15:42.245Z,26.30
2022-11-10T02:15:55.653Z,26.48
2022-11-10T02:16:10.721Z,26.75
2022-11-10T02:16:24.837Z,25.92
2022-11-10T02:16:37.802Z,26.05
2022-11-10T02:16:50.471Z,26.88
2022-11-10T02:17:03.205Z,26.83
2022-11-10T02:17:16.600Z,26.10
2022-11-10T02:17:29.419Z,25.83
2022-11-10T02:17:42.541Z,26.20
2022-11-10T02:17:55.334Z,26.40
2022-11-10T02:18:09.174Z,26.27
2022-11-10T02:18:21.736Z,26.45
2022-11-10T02:18:34.606Z,27.02
2022-11-10T02:18:48.008Z,27.30
2022-11-10T02:19:13.603Z,27.45
2022-11-10T02:19:26.837Z,27.35
2022-11-10T02:19:42.559Z,27.40
2022-11-10T02:19:59.026Z,27.30
2022-11-10T02:20:15.632Z,26.73
2022-11-10T02:20:28.240Z,27.15
2022-11-10T02:20:45.494Z,27.42
2022-11-10T02:20:59.107Z,27.73
2022-11-10T02:21:11.686Z,27.77
2022-11-10T02:21:24.644Z,27.80
2022-11-10T02:21:37.376Z,27.52
2022-11-10T02:21:50.110Z,27.23
2022-11-10T02:22:02.702Z,27.00
2022-11-10T02:22:15.284Z,26.80
2022-11-10T02:22:27.930Z,26.98
2022-11-10T02:22:41.744Z,27.17
2022-11-10T02:22:56.626Z,27.45
2022-11-10T02:23:13.910Z,27.75
2022-11-10T02:23:49.644Z,27.08
2022-11-10T02:24:03.387Z,27.25
2022-11-10T02:24:16.098Z,27.23
2022-11-10T02:24:28.680Z,27.33
2022-11-10T02:24:41.519Z,27.30
2022-11-10T02:24:54.091Z,27.80
2022-11-10T02:25:07.766Z,27.65
2022-11-10T02:25:21.789Z,27.73
2022-11-10T02:25:36.191Z,27.92
2022-11-10T02:25:48.761Z,27.25
2022-11-10T02:26:02.780Z,26.25
2022-11-10T02:26:18.120Z,26.80
2022-11-10T02:26:30.915Z,27.38
2022-11-10T02:26:46.927Z,27.35
2022-11-10T02:27:00.598Z,26.80
2022-11-10T02:27:14.540Z,26.13
2022-11-10T02:27:27.167Z,26.55
2022-11-10T02:27:39.743Z,27.40
2022-11-10T02:27:52.311Z,27.77
2022-11-10T02:28:05.522Z,27.33
2022-11-10T02:28:18.106Z,27.08
2022-11-10T02:28:35.681Z,26.38
2022-11-10T02:28:48.254Z,26.60
2022-11-10T02:29:00.842Z,27.23
2022-11-10T02:29:16.145Z,27.00
2022-11-10T02:29:28.792Z,26.75
2022-11-10T02:29:42.898Z,26.60
2022-11-10T02:29:55.525Z,27.02
2022-11-10T02:30:09.315Z,27.42
2022-11-10T02:30:25.243Z,27.00
2022-11-10T02:30:40.312Z,26.25
2022-11-10T02:30:53.813Z,26.33
2022-11-10T02:31:08.644Z,26.83
2022-11-10T02:31:22.265Z,27.25
2022-11-10T02:31:34.851Z,27.17
2022-11-10T02:31:47.637Z,26.92
2022-11-10T02:32:00.197Z,26.75
2022-11-10T02:32:12.780Z,26.77
2022-11-10T02:32:25.403Z,27.25
2022-11-10T02:32:38.028Z,27.13
2022-11-10T02:32:50.627Z,26.85
2022-11-10T02:33:04.612Z,27.23
2022-11-10T02:33:17.897Z,27.73
2022-11-10T02:33:30.632Z,27.50
2022-11-10T02:33:43.222Z,26.58
2022-11-10T02:33:55.780Z,26.60
2022-11-10T02:34:09.452Z,27.35
2022-11-10T02:34:22.041Z,26.83
2022-11-10T02:34:34.619Z,26.42
2022-11-10T02:34:47.483Z,26.38
2022-11-10T02:35:00.072Z,26.65
2022-11-10T02:35:12.667Z,26.80
2022-11-10T02:35:25.248Z,26.58
2022-11-10T02:35:37.807Z,26.73
2022-11-10T02:35:52.804Z,26.70
2022-11-10T02:36:05.848Z,26.92
2022-11-10T02:36:18.397Z,26.73
2022-11-10T02:36:31.210Z,26.75
2022-11-10T02:36:43.895Z,26.88
2022-11-10T02:36:56.469Z,26.85
2022-11-10T02:37:10.396Z,26.77
2022-11-10T02:37:22.968Z,26.23
2022-11-10T02:37:35.667Z,25.67
2022-11-10T02:37:48.475Z,26.02
2022-11-10T02:38:01.055Z,26.65
2022-11-10T02:38:14.515Z,26.73
2022-11-10T02:38:27.119Z,26.95
2022-11-10T02:38:40.772Z,26.58
2022-11-10T02:38:53.341Z,26.25
2022-11-10T02:39:05.956Z,26.10
2022-11-10T02:39:18.527Z,26.23
2022-11-10T02:39:31.106Z,27.23
2022-11-10T02:39:43.944Z,26.70
2022-11-10T02:39:56.525Z,26.20
2022-11-10T02:40:10.881Z,25.92
2022-11-10T02:40:23.599Z,26.08
2022-11-10T02:40:36.182Z,26.63
2022-11-10T02:40:49.579Z,26.67
2022-11-10T02:41:02.195Z,26.98
2022-11-10T02:41:14.770Z,26.98
2022-11-10T02:41:27.347Z,27.23
2022-11-10T02:41:40.913Z,27.50
2022-11-10T02:41:53.459Z,26.90
2022-11-10T02:42:10.389Z,26.75
2022-11-10T02:42:23.070Z,26.73
2022-11-10T02:42:35.710Z,26.75
2022-11-10T02:42:48.283Z,27.65
2022-11-10T02:43:00.967Z,28.17
2022-11-10T02:43:18.274Z,27.23
2022-11-10T02:43:30.957Z,25.83
2022-11-10T02:43:43.607Z,25.92
2022-11-10T02:43:57.321Z,26.35
2022-11-10T02:44:10.116Z,27.20
2022-11-10T02:44:22.713Z,27.25
2022-11-10T02:44:36.325Z,26.52
2022-11-10T02:44:49.198Z,26.27
2022-11-10T02:45:01.867Z,26.52
2022-11-10T02:45:14.533Z,27.08
2022-11-10T02:45:27.156Z,26.98
2022-11-10T02:45:44.155Z,26.42
2022-11-10T02:45:57.723Z,26.25
2022-11-10T02:46:10.431Z,26.27
2022-11-10T02:46:23.008Z,26.42
2022-11-10T02:46:37.583Z,26.58
2022-11-10T02:46:51.183Z,26.25
2022-11-10T02:47:03.950Z,25.95
2022-11-10T02:47:16.561Z,25.88
2022-11-10T02:47:29.156Z,26.08
2022-11-10T02:47:41.722Z,26.92
2022-11-10T02:47:54.323Z,27.13
2022-11-10T02:48:07.218Z,27.10
2022-11-10T02:48:20.826Z,26.73
2022-11-10T02:48:33.759Z,26.05
2022-11-10T02:48:46.336Z,25.92
2022-11-10T02:48:59.108Z,26.42
2022-11-10T02:49:11.715Z,26.55
2022-11-10T02:49:24.289Z,26.02
2022-11-10T02:49:37.907Z,26.35
2022-11-10T02:49:50.735Z,26.40
2022-11-10T02:50:03.481Z,26.10
2022-11-10T02:50:16.848Z,26.90
2022-11-10T02:50:29.412Z,27.25
2022-11-10T02:50:42.453Z,27.27
2022-11-10T02:50:57.372Z,27.17
2022-11-10T02:51:09.957Z,27.15
2022-11-10T02:51:22.573Z,27.00
2022-11-10T02:51:35.228Z,26.63
2022-11-10T02:51:47.827Z,27.40
2022-11-10T02:52:00.415Z,27.10
2022-11-10T02:52:13.021Z,26.85
2022-11-10T02:52:26.641Z,26.38
2022-11-10T02:52:39.193Z,26.48
2022-11-10T02:52:51.803Z,27.20
2022-11-10T02:53:05.145Z,26.92
2022-11-10T02:53:17.745Z,26.92
2022-11-10T02:53:30.546Z,26.60
2022-11-10T02:53:43.170Z,25.90
2022-11-10T02:53:56.758Z,26.17
2022-11-10T02:54:09.349Z,26.48
2022-11-10T02:54:22.097Z,26.10
2022-11-10T02:54:34.710Z,26.48
2022-11-10T02:54:47.286Z,26.42
2022-11-10T02:55:00.144Z,26.55
2022-11-10T02:55:12.697Z,26.50
2022-11-10T02:55:25.330Z,26.00
2022-11-10T02:55:37.893Z,25.50
2022-11-10T02:55:51.506Z,25.58
2022-11-10T02:56:04.348Z,26.38
2022-11-10T02:56:16.939Z,26.33
2022-11-10T02:56:29.516Z,26.73
2022-11-10T02:56:42.100Z,27.25
2022-11-10T02:56:54.671Z,27.25
2022-11-10T02:57:08.612Z,26.77
2022-11-10T02:57:21.203Z,26.65
2022-11-10T02:57:33.781Z,26.10
2022-11-10T02:57:46.377Z,26.33